sensor_id;sensor_type;location;lat;lon;timestamp;P1;durP1;ratioP1;P2;durP2;ratioP2
25249;SDS011;13201;51.148;13.738;2023-05-27T00:01:59;6.68;;;2.70;;
25249;SDS011;13201;51.148;13.738;2023-05-27T00:04:24;6.60;;;2.40;;
25249;SDS011;13201;51.148;13.738;2023-05-27T00:06:50;7.93;;;2.40;;
25249;SDS011;13201;51.148;13.738;2023-05-27T00:09:16;6.75;;;2.40;;
25249;SDS011;13201;51.148;13.738;2023-05-27T00:11:42;8.77;;;2.58;;
25249;SDS011;13201;51.148;13.738;2023-05-27T00:14:07;6.53;;;2.28;;
25249;SDS011;13201;51.148;13.738;2023-05-27T00:16:33;4.90;;;2.08;;
25249;SDS011;13201;51.148;13.738;2023-05-27T00:19:02;4.57;;;2.30;;
25249;SDS011;13201;51.148;13.738;2023-05-27T00:21:28;8.45;;;2.60;;
25249;SDS011;13201;51.148;13.738;2023-05-27T00:23:55;6.05;;;2.40;;
25249;SDS011;13201;51.148;13.738;2023-05-27T00:26:22;5.90;;;2.25;;
25249;SDS011;13201;51.148;13.738;2023-05-27T00:28:48;5.70;;;2.03;;
25249;SDS011;13201;51.148;13.738;2023-05-27T00:31:14;6.82;;;2.47;;
25249;SDS011;13201;51.148;13.738;2023-05-27T00:33:40;4.93;;;2.50;;
25249;SDS011;13201;51.148;13.738;2023-05-27T00:36:06;6.93;;;2.55;;
25249;SDS011;13201;51.148;13.738;2023-05-27T00:38:31;5.70;;;2.50;;
25249;SDS011;13201;51.148;13.738;2023-05-27T00:40:57;7.35;;;2.38;;
25249;SDS011;13201;51.148;13.738;2023-05-27T00:43:26;9.02;;;2.85;;
25249;SDS011;13201;51.148;13.738;2023-05-27T00:45:52;4.90;;;2.22;;
25249;SDS011;13201;51.148;13.738;2023-05-27T00:48:18;5.78;;;2.72;;
25249;SDS011;13201;51.148;13.738;2023-05-27T00:50:45;9.63;;;2.72;;
25249;SDS011;13201;51.148;13.738;2023-05-27T00:53:11;6.82;;;2.40;;
25249;SDS011;13201;51.148;13.738;2023-05-27T00:55:36;7.00;;;2.58;;
25249;SDS011;13201;51.148;13.738;2023-05-27T00:58:02;6.75;;;2.22;;
25249;SDS011;13201;51.148;13.738;2023-05-27T01:00:29;5.20;;;2.10;;
25249;SDS011;13201;51.148;13.738;2023-05-27T01:02:57;4.53;;;2.33;;
25249;SDS011;13201;51.148;13.738;2023-05-27T01:30:11;6.90;;;2.70;;
25249;SDS011;13201;51.148;13.738;2023-05-27T01:32:41;6.27;;;2.80;;
25249;SDS011;13201;51.148;13.738;2023-05-27T01:35:45;8.60;;;2.60;;
25249;SDS011;13201;51.148;13.738;2023-05-27T01:38:16;7.00;;;2.50;;
25249;SDS011;13201;51.148;13.738;2023-05-27T01:40:44;7.85;;;2.75;;
25249;SDS011;13201;51.148;13.738;2023-05-27T01:43:11;4.93;;;2.75;;
25249;SDS011;13201;51.148;13.738;2023-05-27T01:45:38;7.65;;;2.40;;
25249;SDS011;13201;51.148;13.738;2023-05-27T01:48:04;5.15;;;2.50;;
25249;SDS011;13201;51.148;13.738;2023-05-27T01:50:30;6.78;;;2.30;;
25249;SDS011;13201;51.148;13.738;2023-05-27T01:52:57;5.07;;;2.70;;
25249;SDS011;13201;51.148;13.738;2023-05-27T01:55:22;7.28;;;2.92;;
25249;SDS011;13201;51.148;13.738;2023-05-27T01:57:48;6.82;;;2.53;;
25249;SDS011;13201;51.148;13.738;2023-05-27T02:00:14;4.10;;;2.30;;
25249;SDS011;13201;51.148;13.738;2023-05-27T02:02:40;10.17;;;2.87;;
25249;SDS011;13201;51.148;13.738;2023-05-27T02:05:06;13.15;;;3.17;;
25249;SDS011;13201;51.148;13.738;2023-05-27T02:07:32;9.20;;;3.00;;
25249;SDS011;13201;51.148;13.738;2023-05-27T02:09:58;10.93;;;2.70;;
25249;SDS011;13201;51.148;13.738;2023-05-27T02:12:24;6.05;;;2.70;;
25249;SDS011;13201;51.148;13.738;2023-05-27T02:14:49;5.65;;;2.50;;
25249;SDS011;13201;51.148;13.738;2023-05-27T02:17:16;5.33;;;2.47;;
25249;SDS011;13201;51.148;13.738;2023-05-27T02:19:42;9.18;;;2.60;;
25249;SDS011;13201;51.148;13.738;2023-05-27T02:22:08;7.07;;;3.10;;
25249;SDS011;13201;51.148;13.738;2023-05-27T02:24:34;7.13;;;2.90;;
25249;SDS011;13201;51.148;13.738;2023-05-27T02:27:00;8.82;;;3.00;;
25249;SDS011;13201;51.148;13.738;2023-05-27T02:29:26;6.72;;;3.20;;
25249;SDS011;13201;51.148;13.738;2023-05-27T02:31:52;8.32;;;2.78;;
25249;SDS011;13201;51.148;13.738;2023-05-27T02:34:17;7.57;;;2.60;;
25249;SDS011;13201;51.148;13.738;2023-05-27T02:36:43;5.93;;;2.53;;
25249;SDS011;13201;51.148;13.738;2023-05-27T02:39:09;6.03;;;2.30;;
25249;SDS011;13201;51.148;13.738;2023-05-27T02:41:35;6.13;;;2.20;;
25249;SDS011;13201;51.148;13.738;2023-05-27T02:44:01;6.93;;;2.30;;
25249;SDS011;13201;51.148;13.738;2023-05-27T02:46:27;6.88;;;2.67;;
25249;SDS011;13201;51.148;13.738;2023-05-27T02:48:53;5.15;;;2.38;;
25249;SDS011;13201;51.148;13.738;2023-05-27T02:51:21;6.03;;;2.23;;
25249;SDS011;13201;51.148;13.738;2023-05-27T02:53:46;9.93;;;2.30;;
25249;SDS011;13201;51.148;13.738;2023-05-27T02:56:12;3.75;;;2.25;;
25249;SDS011;13201;51.148;13.738;2023-05-27T02:58:38;9.35;;;2.65;;
25249;SDS011;13201;51.148;13.738;2023-05-27T03:01:03;6.68;;;2.70;;
25249;SDS011;13201;51.148;13.738;2023-05-27T03:03:29;9.18;;;2.72;;
25249;SDS011;13201;51.148;13.738;2023-05-27T03:05:55;7.25;;;2.42;;
25249;SDS011;13201;51.148;13.738;2023-05-27T03:08:21;8.02;;;2.67;;
25249;SDS011;13201;51.148;13.738;2023-05-27T03:10:47;7.43;;;2.70;;
25249;SDS011;13201;51.148;13.738;2023-05-27T03:13:13;4.05;;;2.28;;
25249;SDS011;13201;51.148;13.738;2023-05-27T03:15:38;5.63;;;2.25;;
25249;SDS011;13201;51.148;13.738;2023-05-27T03:18:04;5.35;;;2.58;;
25249;SDS011;13201;51.148;13.738;2023-05-27T03:20:30;5.57;;;2.45;;
25249;SDS011;13201;51.148;13.738;2023-05-27T03:22:56;3.17;;;2.15;;
25249;SDS011;13201;51.148;13.738;2023-05-27T03:25:22;5.68;;;2.50;;
25249;SDS011;13201;51.148;13.738;2023-05-27T03:27:48;7.20;;;2.30;;
25249;SDS011;13201;51.148;13.738;2023-05-27T03:30:13;9.75;;;2.45;;
25249;SDS011;13201;51.148;13.738;2023-05-27T03:32:39;7.35;;;2.97;;
25249;SDS011;13201;51.148;13.738;2023-05-27T03:35:05;6.65;;;2.40;;
25249;SDS011;13201;51.148;13.738;2023-05-27T03:37:31;5.33;;;2.40;;
25249;SDS011;13201;51.148;13.738;2023-05-27T03:39:57;6.82;;;2.30;;
25249;SDS011;13201;51.148;13.738;2023-05-27T03:42:23;8.70;;;3.42;;
25249;SDS011;13201;51.148;13.738;2023-05-27T03:44:48;7.25;;;2.70;;
25249;SDS011;13201;51.148;13.738;2023-05-27T03:47:14;3.33;;;1.90;;
25249;SDS011;13201;51.148;13.738;2023-05-27T03:49:43;3.88;;;1.92;;
25249;SDS011;13201;51.148;13.738;2023-05-27T03:52:08;5.25;;;2.13;;
25249;SDS011;13201;51.148;13.738;2023-05-27T03:54:34;7.82;;;2.60;;
25249;SDS011;13201;51.148;13.738;2023-05-27T03:57:00;6.15;;;2.58;;
25249;SDS011;13201;51.148;13.738;2023-05-27T03:59:26;5.73;;;2.23;;
25249;SDS011;13201;51.148;13.738;2023-05-27T04:01:51;5.90;;;2.20;;
25249;SDS011;13201;51.148;13.738;2023-05-27T04:04:17;6.47;;;2.83;;
25249;SDS011;13201;51.148;13.738;2023-05-27T04:06:43;4.07;;;2.33;;
25249;SDS011;13201;51.148;13.738;2023-05-27T04:09:09;7.13;;;2.53;;
25249;SDS011;13201;51.148;13.738;2023-05-27T04:11:34;7.40;;;2.13;;
25249;SDS011;13201;51.148;13.738;2023-05-27T04:14:00;6.75;;;2.65;;
25249;SDS011;13201;51.148;13.738;2023-05-27T04:16:26;8.13;;;2.75;;
25249;SDS011;13201;51.148;13.738;2023-05-27T04:18:52;5.57;;;2.67;;
25249;SDS011;13201;51.148;13.738;2023-05-27T04:21:18;5.35;;;2.53;;
25249;SDS011;13201;51.148;13.738;2023-05-27T04:23:44;6.40;;;2.40;;
25249;SDS011;13201;51.148;13.738;2023-05-27T04:26:09;8.95;;;3.08;;
25249;SDS011;13201;51.148;13.738;2023-05-27T04:28:35;5.57;;;2.80;;
25249;SDS011;13201;51.148;13.738;2023-05-27T04:31:01;7.88;;;2.95;;
25249;SDS011;13201;51.148;13.738;2023-05-27T04:33:27;6.43;;;2.50;;
25249;SDS011;13201;51.148;13.738;2023-05-27T04:35:53;5.75;;;2.60;;
25249;SDS011;13201;51.148;13.738;2023-05-27T04:38:21;10.35;;;2.90;;
25249;SDS011;13201;51.148;13.738;2023-05-27T04:40:48;8.38;;;3.65;;
25249;SDS011;13201;51.148;13.738;2023-05-27T04:43:21;11.80;;;3.70;;
25249;SDS011;13201;51.148;13.738;2023-05-27T04:45:48;6.80;;;3.15;;
25249;SDS011;13201;51.148;13.738;2023-05-27T04:48:14;11.75;;;3.80;;
25249;SDS011;13201;51.148;13.738;2023-05-27T04:50:41;9.48;;;3.50;;
25249;SDS011;13201;51.148;13.738;2023-05-27T04:53:07;9.50;;;3.42;;
25249;SDS011;13201;51.148;13.738;2023-05-27T04:55:33;10.47;;;3.37;;
25249;SDS011;13201;51.148;13.738;2023-05-27T04:57:59;12.33;;;3.70;;
25249;SDS011;13201;51.148;13.738;2023-05-27T05:00:28;14.38;;;3.72;;
25249;SDS011;13201;51.148;13.738;2023-05-27T05:03:14;9.07;;;3.43;;
25249;SDS011;13201;51.148;13.738;2023-05-27T05:05:49;8.85;;;3.55;;
25249;SDS011;13201;51.148;13.738;2023-05-27T05:08:16;8.77;;;3.65;;
25249;SDS011;13201;51.148;13.738;2023-05-27T05:10:43;15.57;;;3.85;;
25249;SDS011;13201;51.148;13.738;2023-05-27T05:13:10;10.20;;;4.13;;
25249;SDS011;13201;51.148;13.738;2023-05-27T05:15:37;9.10;;;4.33;;
25249;SDS011;13201;51.148;13.738;2023-05-27T05:18:03;12.35;;;3.80;;
25249;SDS011;13201;51.148;13.738;2023-05-27T05:20:28;13.70;;;3.83;;
25249;SDS011;13201;51.148;13.738;2023-05-27T05:22:54;9.07;;;3.88;;
25249;SDS011;13201;51.148;13.738;2023-05-27T05:25:20;9.90;;;3.87;;
25249;SDS011;13201;51.148;13.738;2023-05-27T05:27:46;8.15;;;3.90;;
25249;SDS011;13201;51.148;13.738;2023-05-27T05:30:12;13.68;;;4.53;;
25249;SDS011;13201;51.148;13.738;2023-05-27T05:32:38;12.80;;;4.50;;
25249;SDS011;13201;51.148;13.738;2023-05-27T05:35:03;11.05;;;3.72;;
25249;SDS011;13201;51.148;13.738;2023-05-27T05:37:29;15.68;;;4.30;;
25249;SDS011;13201;51.148;13.738;2023-05-27T05:39:55;17.40;;;4.68;;
25249;SDS011;13201;51.148;13.738;2023-05-27T05:42:21;12.38;;;4.18;;
25249;SDS011;13201;51.148;13.738;2023-05-27T05:44:47;9.88;;;3.92;;
25249;SDS011;13201;51.148;13.738;2023-05-27T05:47:12;13.00;;;3.83;;
25249;SDS011;13201;51.148;13.738;2023-05-27T05:49:38;12.68;;;4.10;;
25249;SDS011;13201;51.148;13.738;2023-05-27T05:52:04;13.52;;;4.05;;
25249;SDS011;13201;51.148;13.738;2023-05-27T05:54:29;17.00;;;4.30;;
25249;SDS011;13201;51.148;13.738;2023-05-27T05:56:55;13.90;;;4.75;;
25249;SDS011;13201;51.148;13.738;2023-05-27T05:59:21;12.65;;;4.35;;
25249;SDS011;13201;51.148;13.738;2023-05-27T06:01:46;17.15;;;4.70;;
25249;SDS011;13201;51.148;13.738;2023-05-27T06:04:12;15.73;;;4.50;;
25249;SDS011;13201;51.148;13.738;2023-05-27T06:06:38;17.23;;;5.32;;
25249;SDS011;13201;51.148;13.738;2023-05-27T06:11:30;17.93;;;5.73;;
25249;SDS011;13201;51.148;13.738;2023-05-27T06:13:57;17.70;;;5.75;;
25249;SDS011;13201;51.148;13.738;2023-05-27T06:16:23;18.15;;;5.57;;
25249;SDS011;13201;51.148;13.738;2023-05-27T06:18:49;21.48;;;5.35;;
25249;SDS011;13201;51.148;13.738;2023-05-27T06:21:15;19.02;;;5.93;;
25249;SDS011;13201;51.148;13.738;2023-05-27T06:23:40;14.93;;;5.72;;
25249;SDS011;13201;51.148;13.738;2023-05-27T06:26:06;18.23;;;5.32;;
25249;SDS011;13201;51.148;13.738;2023-05-27T06:28:32;17.52;;;5.00;;
25249;SDS011;13201;51.148;13.738;2023-05-27T06:30:58;13.73;;;4.43;;
25249;SDS011;13201;51.148;13.738;2023-05-27T06:33:23;23.10;;;6.35;;
25249;SDS011;13201;51.148;13.738;2023-05-27T06:35:49;21.05;;;8.55;;
25249;SDS011;13201;51.148;13.738;2023-05-27T06:38:15;18.20;;;4.75;;
25249;SDS011;13201;51.148;13.738;2023-05-27T06:40:40;10.77;;;4.13;;
25249;SDS011;13201;51.148;13.738;2023-05-27T06:43:06;12.48;;;4.18;;
25249;SDS011;13201;51.148;13.738;2023-05-27T06:45:32;16.63;;;4.30;;
25249;SDS011;13201;51.148;13.738;2023-05-27T06:47:57;13.10;;;3.85;;
25249;SDS011;13201;51.148;13.738;2023-05-27T06:50:23;12.27;;;3.63;;
25249;SDS011;13201;51.148;13.738;2023-05-27T06:52:49;14.15;;;3.78;;
25249;SDS011;13201;51.148;13.738;2023-05-27T06:55:14;13.15;;;3.38;;
25249;SDS011;13201;51.148;13.738;2023-05-27T06:57:40;14.52;;;3.50;;
25249;SDS011;13201;51.148;13.738;2023-05-27T07:00:07;12.45;;;3.92;;
25249;SDS011;13201;51.148;13.738;2023-05-27T07:02:33;15.30;;;3.47;;
25249;SDS011;13201;51.148;13.738;2023-05-27T07:04:59;11.40;;;3.40;;
25249;SDS011;13201;51.148;13.738;2023-05-27T07:07:25;13.65;;;3.58;;
25249;SDS011;13201;51.148;13.738;2023-05-27T07:09:51;10.27;;;3.28;;
25249;SDS011;13201;51.148;13.738;2023-05-27T07:12:16;13.82;;;3.17;;
25249;SDS011;13201;51.148;13.738;2023-05-27T07:14:43;12.73;;;3.63;;
25249;SDS011;13201;51.148;13.738;2023-05-27T07:17:08;10.85;;;2.90;;
25249;SDS011;13201;51.148;13.738;2023-05-27T07:19:34;11.43;;;2.90;;
25249;SDS011;13201;51.148;13.738;2023-05-27T07:22:00;13.93;;;3.28;;
25249;SDS011;13201;51.148;13.738;2023-05-27T07:24:25;15.50;;;3.72;;
25249;SDS011;13201;51.148;13.738;2023-05-27T07:26:52;16.08;;;3.20;;
25249;SDS011;13201;51.148;13.738;2023-05-27T07:29:17;11.35;;;3.20;;
25249;SDS011;13201;51.148;13.738;2023-05-27T07:31:45;12.32;;;3.10;;
25249;SDS011;13201;51.148;13.738;2023-05-27T07:34:11;10.30;;;2.70;;
25249;SDS011;13201;51.148;13.738;2023-05-27T07:36:36;9.40;;;3.22;;
25249;SDS011;13201;51.148;13.738;2023-05-27T07:39:02;8.75;;;3.10;;
25249;SDS011;13201;51.148;13.738;2023-05-27T07:41:28;13.43;;;3.30;;
25249;SDS011;13201;51.148;13.738;2023-05-27T07:43:55;15.70;;;3.10;;
25249;SDS011;13201;51.148;13.738;2023-05-27T07:46:21;12.57;;;3.13;;
25249;SDS011;13201;51.148;13.738;2023-05-27T07:48:47;9.10;;;2.27;;
25249;SDS011;13201;51.148;13.738;2023-05-27T07:51:13;10.35;;;2.80;;
25249;SDS011;13201;51.148;13.738;2023-05-27T07:53:38;12.15;;;3.20;;
25249;SDS011;13201;51.148;13.738;2023-05-27T07:56:04;8.50;;;2.70;;
25249;SDS011;13201;51.148;13.738;2023-05-27T07:58:30;14.63;;;2.92;;
25249;SDS011;13201;51.148;13.738;2023-05-27T08:00:56;8.75;;;3.28;;
25249;SDS011;13201;51.148;13.738;2023-05-27T08:03:21;12.10;;;2.95;;
25249;SDS011;13201;51.148;13.738;2023-05-27T08:05:47;12.05;;;3.25;;
25249;SDS011;13201;51.148;13.738;2023-05-27T08:08:13;11.10;;;3.22;;
25249;SDS011;13201;51.148;13.738;2023-05-27T08:10:38;13.10;;;3.22;;
25249;SDS011;13201;51.148;13.738;2023-05-27T08:13:04;10.73;;;3.28;;
25249;SDS011;13201;51.148;13.738;2023-05-27T08:15:30;12.45;;;2.55;;
25249;SDS011;13201;51.148;13.738;2023-05-27T08:17:56;11.57;;;2.57;;
25249;SDS011;13201;51.148;13.738;2023-05-27T08:20:22;13.80;;;2.60;;
25249;SDS011;13201;51.148;13.738;2023-05-27T08:22:48;10.70;;;2.83;;
25249;SDS011;13201;51.148;13.738;2023-05-27T08:25:14;8.35;;;2.90;;
25249;SDS011;13201;51.148;13.738;2023-05-27T08:27:50;10.77;;;2.83;;
25249;SDS011;13201;51.148;13.738;2023-05-27T08:30:17;10.40;;;2.58;;
25249;SDS011;13201;51.148;13.738;2023-05-27T08:32:44;13.03;;;2.80;;
25249;SDS011;13201;51.148;13.738;2023-05-27T08:35:10;13.98;;;3.30;;
25249;SDS011;13201;51.148;13.738;2023-05-27T08:37:38;21.05;;;9.93;;
25249;SDS011;13201;51.148;13.738;2023-05-27T08:40:06;9.97;;;3.10;;
25249;SDS011;13201;51.148;13.738;2023-05-27T08:42:34;12.80;;;2.75;;
25249;SDS011;13201;51.148;13.738;2023-05-27T08:45:01;7.43;;;2.65;;
25249;SDS011;13201;51.148;13.738;2023-05-27T08:47:30;7.63;;;2.70;;
25249;SDS011;13201;51.148;13.738;2023-05-27T08:49:56;6.85;;;2.22;;
25249;SDS011;13201;51.148;13.738;2023-05-27T08:52:23;8.55;;;2.47;;
25249;SDS011;13201;51.148;13.738;2023-05-27T08:54:51;14.27;;;3.22;;
25249;SDS011;13201;51.148;13.738;2023-05-27T08:57:19;9.43;;;2.83;;
25249;SDS011;13201;51.148;13.738;2023-05-27T08:59:50;10.10;;;2.80;;
25249;SDS011;13201;51.148;13.738;2023-05-27T09:02:16;9.93;;;2.50;;
25249;SDS011;13201;51.148;13.738;2023-05-27T09:04:44;8.85;;;2.58;;
25249;SDS011;13201;51.148;13.738;2023-05-27T09:07:11;9.10;;;2.75;;
25249;SDS011;13201;51.148;13.738;2023-05-27T09:09:38;10.02;;;2.70;;
25249;SDS011;13201;51.148;13.738;2023-05-27T09:12:04;11.65;;;2.53;;
25249;SDS011;13201;51.148;13.738;2023-05-27T09:14:31;9.82;;;2.38;;
25249;SDS011;13201;51.148;13.738;2023-05-27T09:19:30;8.68;;;2.60;;
25249;SDS011;13201;51.148;13.738;2023-05-27T09:21:55;26.30;;;12.48;;
25249;SDS011;13201;51.148;13.738;2023-05-27T09:24:24;10.25;;;3.22;;
25249;SDS011;13201;51.148;13.738;2023-05-27T09:26:51;7.43;;;2.28;;
25249;SDS011;13201;51.148;13.738;2023-05-27T09:29:37;11.05;;;2.17;;
25249;SDS011;13201;51.148;13.738;2023-05-27T09:32:05;7.10;;;2.72;;
25249;SDS011;13201;51.148;13.738;2023-05-27T09:34:37;7.35;;;2.28;;
25249;SDS011;13201;51.148;13.738;2023-05-27T09:37:11;8.75;;;2.30;;
25249;SDS011;13201;51.148;13.738;2023-05-27T09:39:40;8.88;;;2.70;;
25249;SDS011;13201;51.148;13.738;2023-05-27T09:42:06;10.10;;;2.45;;
25249;SDS011;13201;51.148;13.738;2023-05-27T09:44:34;8.13;;;2.63;;
25249;SDS011;13201;51.148;13.738;2023-05-27T09:47:05;10.20;;;2.20;;
25249;SDS011;13201;51.148;13.738;2023-05-27T09:49:36;8.82;;;1.92;;
25249;SDS011;13201;51.148;13.738;2023-05-27T09:52:03;9.18;;;2.65;;
25249;SDS011;13201;51.148;13.738;2023-05-27T09:54:30;8.05;;;2.00;;
25249;SDS011;13201;51.148;13.738;2023-05-27T09:56:57;9.38;;;2.53;;
25249;SDS011;13201;51.148;13.738;2023-05-27T09:59:25;13.38;;;2.10;;
25249;SDS011;13201;51.148;13.738;2023-05-27T10:01:51;6.85;;;2.20;;
25249;SDS011;13201;51.148;13.738;2023-05-27T10:04:18;7.97;;;2.08;;
25249;SDS011;13201;51.148;13.738;2023-05-27T10:06:44;5.50;;;2.60;;
25249;SDS011;13201;51.148;13.738;2023-05-27T10:09:11;6.30;;;2.45;;
25249;SDS011;13201;51.148;13.738;2023-05-27T10:14:05;7.25;;;2.72;;
25249;SDS011;13201;51.148;13.738;2023-05-27T10:16:31;6.93;;;2.13;;
25249;SDS011;13201;51.148;13.738;2023-05-27T10:18:57;7.70;;;2.28;;
25249;SDS011;13201;51.148;13.738;2023-05-27T10:21:26;7.20;;;2.27;;
25249;SDS011;13201;51.148;13.738;2023-05-27T10:23:56;5.22;;;2.35;;
25249;SDS011;13201;51.148;13.738;2023-05-27T10:26:35;8.00;;;2.28;;
25249;SDS011;13201;51.148;13.738;2023-05-27T10:29:09;9.55;;;2.40;;
25249;SDS011;13201;51.148;13.738;2023-05-27T10:31:46;9.38;;;2.70;;
25249;SDS011;13201;51.148;13.738;2023-05-27T10:34:13;4.55;;;2.30;;
25249;SDS011;13201;51.148;13.738;2023-05-27T10:36:39;5.15;;;1.90;;
25249;SDS011;13201;51.148;13.738;2023-05-27T10:39:06;3.95;;;1.65;;
25249;SDS011;13201;51.148;13.738;2023-05-27T10:44:33;7.32;;;1.80;;
25249;SDS011;13201;51.148;13.738;2023-05-27T10:47:00;7.25;;;1.90;;
25249;SDS011;13201;51.148;13.738;2023-05-27T10:49:28;7.55;;;2.30;;
25249;SDS011;13201;51.148;13.738;2023-05-27T10:52:03;6.28;;;2.13;;
25249;SDS011;13201;51.148;13.738;2023-05-27T10:54:35;11.55;;;2.60;;
25249;SDS011;13201;51.148;13.738;2023-05-27T10:57:01;7.83;;;2.10;;
25249;SDS011;13201;51.148;13.738;2023-05-27T10:59:29;7.65;;;1.80;;
25249;SDS011;13201;51.148;13.738;2023-05-27T11:02:03;3.83;;;1.90;;
25249;SDS011;13201;51.148;13.738;2023-05-27T11:04:36;8.23;;;2.13;;
25249;SDS011;13201;51.148;13.738;2023-05-27T11:07:02;7.70;;;2.28;;
25249;SDS011;13201;51.148;13.738;2023-05-27T11:09:29;5.18;;;2.00;;
25249;SDS011;13201;51.148;13.738;2023-05-27T11:11:55;7.15;;;1.88;;
25249;SDS011;13201;51.148;13.738;2023-05-27T11:14:22;7.68;;;2.40;;
25249;SDS011;13201;51.148;13.738;2023-05-27T11:16:49;5.10;;;1.90;;
25249;SDS011;13201;51.148;13.738;2023-05-27T11:19:16;6.78;;;2.25;;
25249;SDS011;13201;51.148;13.738;2023-05-27T11:26:43;7.75;;;2.35;;
25249;SDS011;13201;51.148;13.738;2023-05-27T11:29:13;11.18;;;2.40;;
25249;SDS011;13201;51.148;13.738;2023-05-27T11:31:40;7.00;;;2.40;;
25249;SDS011;13201;51.148;13.738;2023-05-27T11:34:13;6.13;;;2.53;;
25249;SDS011;13201;51.148;13.738;2023-05-27T11:36:40;6.07;;;2.20;;
25249;SDS011;13201;51.148;13.738;2023-05-27T11:39:12;5.43;;;1.95;;
25249;SDS011;13201;51.148;13.738;2023-05-27T11:41:48;7.57;;;2.35;;
25249;SDS011;13201;51.148;13.738;2023-05-27T11:44:21;7.45;;;2.30;;
25249;SDS011;13201;51.148;13.738;2023-05-27T11:46:48;7.15;;;2.08;;
25249;SDS011;13201;51.148;13.738;2023-05-27T11:49:18;4.18;;;1.90;;
25249;SDS011;13201;51.148;13.738;2023-05-27T11:51:45;9.07;;;2.10;;
25249;SDS011;13201;51.148;13.738;2023-05-27T11:56:48;8.25;;;2.83;;
25249;SDS011;13201;51.148;13.738;2023-05-27T11:59:15;7.25;;;2.08;;
25249;SDS011;13201;51.148;13.738;2023-05-27T12:01:41;4.57;;;2.28;;
25249;SDS011;13201;51.148;13.738;2023-05-27T12:04:08;8.07;;;2.33;;
25249;SDS011;13201;51.148;13.738;2023-05-27T12:06:35;7.78;;;2.45;;
25249;SDS011;13201;51.148;13.738;2023-05-27T12:09:03;7.57;;;2.22;;
25249;SDS011;13201;51.148;13.738;2023-05-27T12:11:33;4.85;;;2.10;;
25249;SDS011;13201;51.148;13.738;2023-05-27T12:13:59;7.70;;;2.33;;
25249;SDS011;13201;51.148;13.738;2023-05-27T12:16:25;4.22;;;1.80;;
25249;SDS011;13201;51.148;13.738;2023-05-27T12:18:51;7.87;;;2.50;;
25249;SDS011;13201;51.148;13.738;2023-05-27T12:21:17;5.68;;;2.20;;
25249;SDS011;13201;51.148;13.738;2023-05-27T12:23:43;5.07;;;2.22;;
25249;SDS011;13201;51.148;13.738;2023-05-27T12:26:09;5.93;;;2.13;;
25249;SDS011;13201;51.148;13.738;2023-05-27T12:28:36;6.07;;;2.42;;
25249;SDS011;13201;51.148;13.738;2023-05-27T12:31:02;6.75;;;2.25;;
25249;SDS011;13201;51.148;13.738;2023-05-27T12:33:28;9.05;;;2.80;;
25249;SDS011;13201;51.148;13.738;2023-05-27T12:35:53;7.60;;;2.60;;
25249;SDS011;13201;51.148;13.738;2023-05-27T12:38:19;6.73;;;2.57;;
25249;SDS011;13201;51.148;13.738;2023-05-27T12:40:45;6.33;;;2.50;;
25249;SDS011;13201;51.148;13.738;2023-05-27T12:43:10;5.28;;;2.13;;
25249;SDS011;13201;51.148;13.738;2023-05-27T12:45:36;7.07;;;2.28;;
25249;SDS011;13201;51.148;13.738;2023-05-27T12:48:02;4.93;;;2.25;;
25249;SDS011;13201;51.148;13.738;2023-05-27T12:50:28;7.07;;;2.50;;
25249;SDS011;13201;51.148;13.738;2023-05-27T12:52:54;3.27;;;2.27;;
25249;SDS011;13201;51.148;13.738;2023-05-27T12:55:20;4.43;;;2.40;;
25249;SDS011;13201;51.148;13.738;2023-05-27T12:57:48;8.20;;;2.45;;
25249;SDS011;13201;51.148;13.738;2023-05-27T13:00:15;6.53;;;2.47;;
25249;SDS011;13201;51.148;13.738;2023-05-27T13:02:41;7.57;;;2.70;;
25249;SDS011;13201;51.148;13.738;2023-05-27T13:07:35;5.30;;;2.15;;
25249;SDS011;13201;51.148;13.738;2023-05-27T13:10:02;5.78;;;2.30;;
25249;SDS011;13201;51.148;13.738;2023-05-27T13:12:31;8.85;;;2.45;;
25249;SDS011;13201;51.148;13.738;2023-05-27T13:14:58;6.85;;;3.25;;
25249;SDS011;13201;51.148;13.738;2023-05-27T13:17:25;5.07;;;2.42;;
25249;SDS011;13201;51.148;13.738;2023-05-27T13:19:51;8.15;;;2.58;;
25249;SDS011;13201;51.148;13.738;2023-05-27T13:22:16;8.23;;;2.77;;
25249;SDS011;13201;51.148;13.738;2023-05-27T13:24:42;8.70;;;2.53;;
25249;SDS011;13201;51.148;13.738;2023-05-27T13:27:08;10.17;;;2.63;;
25249;SDS011;13201;51.148;13.738;2023-05-27T13:29:34;5.37;;;2.30;;
25249;SDS011;13201;51.148;13.738;2023-05-27T13:32:00;6.18;;;2.38;;
25249;SDS011;13201;51.148;13.738;2023-05-27T13:34:26;4.93;;;2.40;;
25249;SDS011;13201;51.148;13.738;2023-05-27T13:36:53;8.95;;;2.55;;
25249;SDS011;13201;51.148;13.738;2023-05-27T13:39:19;4.95;;;2.22;;
25249;SDS011;13201;51.148;13.738;2023-05-27T13:41:45;4.93;;;2.13;;
25249;SDS011;13201;51.148;13.738;2023-05-27T13:44:10;6.63;;;2.40;;
25249;SDS011;13201;51.148;13.738;2023-05-27T13:46:37;6.57;;;2.50;;
25249;SDS011;13201;51.148;13.738;2023-05-27T13:51:31;6.83;;;2.33;;
25249;SDS011;13201;51.148;13.738;2023-05-27T13:53:57;5.53;;;2.28;;
25249;SDS011;13201;51.148;13.738;2023-05-27T13:56:23;5.50;;;2.30;;
25249;SDS011;13201;51.148;13.738;2023-05-27T13:58:50;6.43;;;2.60;;
25249;SDS011;13201;51.148;13.738;2023-05-27T14:01:17;5.93;;;2.55;;
25249;SDS011;13201;51.148;13.738;2023-05-27T14:06:09;5.80;;;2.63;;
25249;SDS011;13201;51.148;13.738;2023-05-27T14:08:35;5.27;;;2.30;;
25249;SDS011;13201;51.148;13.738;2023-05-27T14:11:01;5.50;;;2.60;;
25249;SDS011;13201;51.148;13.738;2023-05-27T14:13:27;6.63;;;2.60;;
25249;SDS011;13201;51.148;13.738;2023-05-27T14:15:53;16.00;;;5.70;;
25249;SDS011;13201;51.148;13.738;2023-05-27T14:18:19;8.43;;;4.77;;
25249;SDS011;13201;51.148;13.738;2023-05-27T14:20:44;7.33;;;2.67;;
25249;SDS011;13201;51.148;13.738;2023-05-27T14:23:10;5.87;;;2.63;;
25249;SDS011;13201;51.148;13.738;2023-05-27T14:25:38;6.57;;;2.53;;
25249;SDS011;13201;51.148;13.738;2023-05-27T14:28:03;7.33;;;2.43;;
25249;SDS011;13201;51.148;13.738;2023-05-27T14:30:31;3.85;;;2.35;;
25249;SDS011;13201;51.148;13.738;2023-05-27T14:33:02;9.98;;;2.72;;
25249;SDS011;13201;51.148;13.738;2023-05-27T14:35:37;9.07;;;2.63;;
25249;SDS011;13201;51.148;13.738;2023-05-27T14:38:04;7.40;;;2.10;;
25249;SDS011;13201;51.148;13.738;2023-05-27T14:40:31;10.85;;;2.63;;
25249;SDS011;13201;51.148;13.738;2023-05-27T14:42:57;3.67;;;2.10;;
25249;SDS011;13201;51.148;13.738;2023-05-27T14:45:23;6.43;;;2.40;;
25249;SDS011;13201;51.148;13.738;2023-05-27T14:47:49;6.03;;;2.03;;
25249;SDS011;13201;51.148;13.738;2023-05-27T14:50:16;6.45;;;2.60;;
25249;SDS011;13201;51.148;13.738;2023-05-27T14:52:42;11.77;;;2.67;;
25249;SDS011;13201;51.148;13.738;2023-05-27T14:55:08;5.20;;;2.23;;
25249;SDS011;13201;51.148;13.738;2023-05-27T14:57:34;9.03;;;2.70;;
25249;SDS011;13201;51.148;13.738;2023-05-27T15:00:00;5.87;;;2.50;;
25249;SDS011;13201;51.148;13.738;2023-05-27T15:04:52;6.67;;;2.10;;
25249;SDS011;13201;51.148;13.738;2023-05-27T15:07:17;6.07;;;2.67;;
25249;SDS011;13201;51.148;13.738;2023-05-27T15:09:44;11.60;;;2.40;;
25249;SDS011;13201;51.148;13.738;2023-05-27T15:12:10;7.72;;;2.45;;
25249;SDS011;13201;51.148;13.738;2023-05-27T15:14:35;5.70;;;2.60;;
25249;SDS011;13201;51.148;13.738;2023-05-27T15:17:01;5.27;;;2.57;;
25249;SDS011;13201;51.148;13.738;2023-05-27T15:19:27;6.27;;;2.27;;
25249;SDS011;13201;51.148;13.738;2023-05-27T15:21:53;4.50;;;2.37;;